createdAt,value
2018-06-10T00:01:49.239Z,99578.79
2018-06-10T00:04:19.850Z,99589.64
2018-06-10T00:06:50.427Z,99586.38
2018-06-10T00:09:20.799Z,99575.71
2018-06-10T00:11:51.186Z,99576.75
2018-06-10T00:14:21.659Z,99582.20
2018-06-10T00:16:57.294Z,99578.48
2018-06-10T00:19:27.811Z,99575.55
2018-06-10T00:22:00.572Z,99578.07
2018-06-10T00:24:31.801Z,99579.05
2018-06-10T00:27:05.664Z,99572.63
2018-06-10T00:29:37.027Z,99579.72
2018-06-10T00:32:08.625Z,99577.30
2018-06-10T00:34:40.528Z,99578.88
2018-06-10T00:37:12.024Z,99583.30
2018-06-10T00:39:45.153Z,99578.15
2018-06-10T00:42:17.785Z,99581.24
2018-06-10T00:44:53.088Z,99575.79
2018-06-10T00:47:40.719Z,99573.30
2018-06-10T00:50:12.016Z,99569.78
2018-06-10T00:52:44.862Z,99570.28
2018-06-10T00:55:16.691Z,99566.48
2018-06-10T00:57:49.506Z,99571.25
2018-06-10T01:00:21.279Z,99569.94
2018-06-10T01:02:51.976Z,99570.38
2018-06-10T01:05:27.115Z,99560.49
2018-06-10T01:07:59.398Z,99558.61
2018-06-10T01:10:32.923Z,99565.70
2018-06-10T01:13:03.429Z,99571.39
2018-06-10T01:15:35.135Z,99573.50
2018-06-10T01:18:06.147Z,99563.98
2018-06-10T01:20:36.752Z,99566.34
2018-06-10T01:23:07.004Z,99570.05
2018-06-10T01:25:40.995Z,99580.23
2018-06-10T01:28:12.806Z,99570.47
2018-06-10T01:30:46.524Z,99566.13
2018-06-10T01:33:22.568Z,99578.45
2018-06-10T01:35:54.336Z,99573.91
2018-06-10T01:38:26.942Z,99577.81
2018-06-10T01:41:04.232Z,99570.28
2018-06-10T01:43:37.600Z,99568.89
2018-06-10T01:46:11.200Z,99566.23
2018-06-10T01:48:50.862Z,99570.83
2018-06-10T01:57:13.065Z,99572.97
2018-06-10T01:59:52.090Z,99572.78
2018-06-10T02:02:50.072Z,99572.52
2018-06-10T02:05:24.715Z,99571.34
2018-06-10T02:08:10.254Z,99574.81
2018-06-10T02:10:49.573Z,99574.38
2018-06-10T02:13:25.920Z,99573.30
2018-06-10T02:19:00.119Z,99577.73
2018-06-10T02:21:59.571Z,99572.66
2018-06-10T02:31:09.947Z,99580.95
2018-06-10T02:34:20.504Z,99579.00
2018-06-10T02:39:59.836Z,99575.84
2018-06-10T02:42:54.054Z,99581.34
2018-06-10T02:45:30.359Z,99584.20
2018-06-10T02:48:07.348Z,99588.22
2018-06-10T02:50:40.653Z,99583.27
2018-06-10T02:53:28.526Z,99590.64
2018-06-10T02:56:02.505Z,99592.48
2018-06-10T02:58:50.310Z,99589.83
2018-06-10T03:01:21.457Z,99583.95
2018-06-10T03:03:55.359Z,99588.25
2018-06-10T03:06:25.933Z,99583.34
2018-06-10T03:08:58.602Z,99576.33
2018-06-10T03:11:29.561Z,99579.48
2018-06-10T03:14:30.970Z,99576.27
2018-06-10T03:17:06.440Z,99582.56
2018-06-10T03:19:54.147Z,99579.40
2018-06-10T03:22:26.328Z,99579.79
2018-06-10T03:25:02.191Z,99584.24
2018-06-10T03:27:33.468Z,99591.33
2018-06-10T03:30:04.831Z,99590.75
2018-06-10T03:32:35.321Z,99598.05
2018-06-10T03:35:06.840Z,99595.14
2018-06-10T03:37:44.109Z,99592.38
2018-06-10T03:40:22.133Z,99595.55
2018-06-10T03:43:08.806Z,99598.04
2018-06-10T03:46:03.133Z,99595.35
2018-06-10T03:48:47.662Z,99590.56
2018-06-10T03:51:28.746Z,99595.13
2018-06-10T03:53:59.337Z,99592.41
2018-06-10T03:56:37.680Z,99586.25
2018-06-10T04:05:29.886Z,99595.25
2018-06-10T04:11:12.498Z,99592.80
2018-06-10T04:30:20.236Z,99591.73
2018-06-10T04:33:03.301Z,99596.19
2018-06-10T04:35:34.015Z,99598.02
2018-06-10T04:38:05.193Z,99606.69
2018-06-10T04:40:50.267Z,99608.44
2018-06-10T04:43:26.475Z,99616.89
2018-06-10T04:46:05.795Z,99608.68
2018-06-10T04:48:40.075Z,99608.78
2018-06-10T04:54:04.373Z,99612.37
2018-06-10T05:45:53.164Z,99652.03
2018-06-10T05:48:42.412Z,99654.56
2018-06-10T05:54:30.429Z,99653.64
2018-06-10T05:57:17.576Z,99649.70
2018-06-10T06:03:00.585Z,99653.70
2018-06-10T06:05:43.153Z,99656.16
2018-06-10T06:14:41.455Z,99667.45
2018-06-10T06:17:22.661Z,99661.59
2018-06-10T06:19:53.369Z,99668.00
2018-06-10T06:22:25.287Z,99667.56
2018-06-10T06:25:08.238Z,99661.03
2018-06-10T06:27:50.609Z,99660.86
2018-06-10T06:30:23.662Z,99658.87
2018-06-10T06:32:59.872Z,99656.10
2018-06-10T06:35:47.052Z,99662.88
2018-06-10T06:38:19.275Z,99668.05
2018-06-10T06:40:51.420Z,99671.02
2018-06-10T06:43:21.867Z,99670.89
2018-06-10T06:45:52.908Z,99668.64
2018-06-10T06:48:23.509Z,99667.02
2018-06-10T06:50:54.393Z,99665.83
2018-06-10T06:53:27.706Z,99662.48
2018-06-10T06:56:01.110Z,99673.30
2018-06-10T06:58:32.061Z,99670.56
2018-06-10T07:01:04.400Z,99678.56
2018-06-10T07:03:34.972Z,99673.69
2018-06-10T07:06:06.370Z,99669.22
2018-06-10T07:08:39.361Z,99671.13
2018-06-10T07:11:10.826Z,99667.20
2018-06-10T07:13:42.549Z,99667.95
2018-06-10T07:16:14.237Z,99670.82
2018-06-10T07:18:44.704Z,99667.48
2018-06-10T07:21:15.648Z,99663.92
2018-06-10T07:23:47.338Z,99664.69
2018-06-10T07:26:19.024Z,99671.89
2018-06-10T07:28:49.716Z,99670.48
2018-06-10T07:31:20.509Z,99670.76
2018-06-10T07:33:51.214Z,99667.90
2018-06-10T07:36:21.483Z,99664.77
2018-06-10T07:38:52.019Z,99663.55
2018-06-10T07:41:22.477Z,99663.39
2018-06-10T07:43:52.873Z,99664.53
2018-06-10T07:46:23.384Z,99664.35
2018-06-10T07:48:53.930Z,99671.02
2018-06-10T07:51:24.406Z,99669.55
2018-06-10T07:53:54.866Z,99668.86
2018-06-10T07:56:25.501Z,99664.97
2018-06-10T07:58:55.998Z,99665.55
2018-06-10T08:01:26.356Z,99658.88
2018-06-10T08:03:56.674Z,99666.22
2018-06-10T08:06:27.398Z,99658.66
2018-06-10T08:08:57.657Z,99658.84
2018-06-10T08:11:28.790Z,99663.08
2018-06-10T08:13:59.406Z,99661.40
2018-06-10T08:16:30.063Z,99669.04
2018-06-10T08:19:00.542Z,99676.38
2018-06-10T08:21:36.731Z,99669.98
2018-06-10T08:24:07.442Z,99675.52
2018-06-10T08:26:37.881Z,99672.23
2018-06-10T08:29:11.401Z,99675.19
2018-06-10T08:31:42.879Z,99666.26
2018-06-10T08:34:15.036Z,99667.61
2018-06-10T08:36:48.264Z,99668.80
2018-06-10T08:39:18.861Z,99669.73
2018-06-10T08:41:49.554Z,99668.78
2018-06-10T08:44:29.559Z,99662.86
2018-06-10T08:47:05.194Z,99667.34
2018-06-10T08:49:35.805Z,99664.33
2018-06-10T08:52:10.399Z,99674.13
2018-06-10T08:54:45.304Z,99674.16
2018-06-10T08:57:17.245Z,99672.34
2018-06-10T08:59:50.601Z,99670.86
2018-06-10T09:02:50.307Z,99673.16
2018-06-10T09:05:26.630Z,99672.45
2018-06-10T09:07:58.920Z,99678.48
2018-06-10T09:13:46.989Z,99674.45
2018-06-10T09:16:27.274Z,99677.68
2018-06-10T09:21:57.259Z,99668.36
2018-06-10T09:27:33.215Z,99671.36
2018-06-10T09:30:04.474Z,99672.28
2018-06-10T09:32:35.957Z,99672.10
2018-06-10T09:35:11.812Z,99663.44
2018-06-10T09:37:44.483Z,99670.03
2018-06-10T09:40:39.274Z,99668.41
2018-06-10T09:43:13.267Z,99670.16
2018-06-10T09:45:52.159Z,99675.30
2018-06-10T09:48:27.982Z,99672.67
2018-06-10T09:51:01.472Z,99664.63
2018-06-10T09:53:36.659Z,99664.01
2018-06-10T09:56:19.685Z,99671.75
2018-06-10T09:59:03.816Z,99666.70
2018-06-10T10:04:31.797Z,99672.44
2018-06-10T10:07:03.420Z,99675.16
2018-06-10T10:09:34.671Z,99677.01
2018-06-10T10:12:05.095Z,99670.68
2018-06-10T10:14:43.690Z,99673.28
2018-06-10T10:17:15.833Z,99670.50
2018-06-10T10:19:46.406Z,99669.70
2018-06-10T10:22:16.888Z,99676.82
2018-06-10T10:24:47.533Z,99671.25
2018-06-10T10:27:18.864Z,99675.84
2018-06-10T10:29:49.444Z,99672.53
2018-06-10T10:32:20.060Z,99670.41
2018-06-10T10:35:13.619Z,99676.78
2018-06-10T10:37:47.309Z,99673.07
2018-06-10T10:40:22.592Z,99672.26
2018-06-10T10:42:55.549Z,99687.69
2018-06-10T10:45:27.659Z,99667.22
2018-06-10T10:48:05.269Z,99672.46
2018-06-10T10:50:45.163Z,99681.00
2018-06-10T10:53:26.924Z,99667.80
2018-06-10T10:56:10.700Z,99674.88
2018-06-10T10:58:50.082Z,99665.50
2018-06-10T11:01:24.714Z,99675.51
2018-06-10T11:04:04.952Z,99672.48
2018-06-10T11:06:37.754Z,99667.34
2018-06-10T11:09:08.044Z,99669.90
2018-06-10T11:11:38.641Z,99664.03
2018-06-10T11:14:09.182Z,99664.42
2018-06-10T11:16:39.820Z,99671.83
2018-06-10T11:19:10.314Z,99667.22
2018-06-10T11:21:41.669Z,99665.99
2018-06-10T11:24:16.562Z,99661.77
2018-06-10T11:26:49.797Z,99664.25
2018-06-10T11:29:24.778Z,99660.57
2018-06-10T11:31:57.198Z,99654.44
2018-06-10T11:34:29.879Z,99666.00
2018-06-10T11:37:02.553Z,99660.64
2018-06-10T11:39:43.270Z,99662.21
2018-06-10T11:42:23.803Z,99667.59
2018-06-10T11:45:24.530Z,99658.87
2018-06-10T11:48:06.223Z,99663.32
2018-06-10T11:50:53.967Z,99659.66
2018-06-10T11:53:31.479Z,99661.16
2018-06-10T11:56:14.074Z,99658.72
2018-06-10T11:59:00.191Z,99664.50
2018-06-10T12:01:37.574Z,99664.93
2018-06-10T12:04:15.316Z,99662.88
2018-06-10T12:07:01.421Z,99654.03
2018-06-10T12:12:40.986Z,99653.88
2018-06-10T12:15:28.859Z,99660.97
2018-06-10T12:18:09.706Z,99663.91
2018-06-10T12:20:48.013Z,99661.62
2018-06-10T12:23:20.824Z,99665.03
2018-06-10T12:25:57.664Z,99665.02
2018-06-10T12:28:33.408Z,99654.21
2018-06-10T12:31:09.750Z,99657.92
2018-06-10T12:33:51.759Z,99652.58
2018-06-10T12:36:35.295Z,99652.69
2018-06-10T12:41:51.478Z,99653.00
2018-06-10T12:44:41.347Z,99650.45
2018-06-10T12:47:18.005Z,99650.56
2018-06-10T12:49:59.182Z,99644.71
2018-06-10T12:52:34.319Z,99645.98
2018-06-10T12:55:15.173Z,99644.09
2018-06-10T12:57:52.299Z,99640.34
2018-06-10T13:00:27.628Z,99641.02
2018-06-10T13:03:07.699Z,99639.26
2018-06-10T13:05:43.786Z,99645.44
2018-06-10T13:08:19.227Z,99646.47
2018-06-10T13:10:58.972Z,99643.27
2018-06-10T13:13:37.231Z,99648.52
2018-06-10T13:16:18.176Z,99639.20
2018-06-10T13:18:58.187Z,99646.55
2018-06-10T13:21:37.338Z,99644.44
2018-06-10T13:24:17.446Z,99639.92
2018-06-10T13:27:06.296Z,99643.78
2018-06-10T13:29:56.166Z,99635.11
2018-06-10T13:32:38.130Z,99639.66
2018-06-10T13:35:40.893Z,99643.23
2018-06-10T13:38:27.264Z,99643.78
2018-06-10T13:41:01.757Z,99645.88
2018-06-10T13:43:34.421Z,99641.57
2018-06-10T13:46:06.164Z,99644.55
2018-06-10T13:48:37.372Z,99645.30
2018-06-10T13:51:09.574Z,99639.70
2018-06-10T13:53:41.124Z,99633.34
2018-06-10T13:56:17.192Z,99635.34
2018-06-10T13:58:56.139Z,99631.84
2018-06-10T14:01:47.210Z,99637.28
2018-06-10T14:04:46.384Z,99644.36
2018-06-10T14:07:57.797Z,99640.69
2018-06-10T14:11:00.441Z,99637.25
2018-06-10T14:14:01.379Z,99633.53
2018-06-10T14:16:59.129Z,99635.63
2018-06-10T14:19:53.516Z,99635.11
2018-06-10T14:26:02.288Z,99625.72
2018-06-10T14:34:25.762Z,99623.23
2018-06-10T14:37:16.435Z,99624.09
2018-06-10T14:40:03.593Z,99618.77
2018-06-10T14:43:14.275Z,99613.00
2018-06-10T14:46:20.924Z,99621.88
2018-06-10T14:53:26.056Z,99613.64
2018-06-10T14:56:21.362Z,99604.90
2018-06-10T15:01:59.984Z,99615.09
2018-06-10T15:04:49.644Z,99609.19
2018-06-10T15:07:40.777Z,99612.91
2018-06-10T15:13:16.267Z,99612.84
2018-06-10T15:16:05.984Z,99615.47
2018-06-10T15:28:13.038Z,99623.09
2018-06-10T15:31:12.652Z,99624.90
2018-06-10T15:34:09.807Z,99626.95
2018-06-10T15:39:46.795Z,99630.17
2018-06-10T15:42:25.386Z,99637.95
2018-06-10T15:45:10.935Z,99636.85
2018-06-10T15:50:53.838Z,99637.02
2018-06-10T16:03:25.804Z,99619.13
2018-06-10T16:06:08.947Z,99627.69
2018-06-10T16:08:45.843Z,99630.76
2018-06-10T16:11:22.941Z,99634.01
2018-06-10T16:13:59.919Z,99634.73
2018-06-10T16:16:48.933Z,99631.66
2018-06-10T16:19:24.768Z,99628.39
2018-06-10T16:21:57.853Z,99627.31
2018-06-10T16:24:31.257Z,99638.98
2018-06-10T16:27:02.166Z,99641.66
2018-06-10T16:29:33.424Z,99637.86
2018-06-10T16:32:04.577Z,99640.38
2018-06-10T16:34:38.871Z,99640.26
2018-06-10T16:40:30.444Z,99637.70
2018-06-10T16:43:01.681Z,99638.34
2018-06-10T16:45:34.079Z,99645.25
2018-06-10T16:48:10.599Z,99648.94
2018-06-10T16:50:47.109Z,99648.30
2018-06-10T16:56:02.376Z,99662.01
2018-06-10T17:00:19.875Z,99667.86
2018-06-10T17:17:46.659Z,99675.17
2018-06-10T17:20:18.174Z,99669.05
2018-06-10T17:52:44.015Z,99710.63
2018-06-10T17:53:24.766Z,99707.57
2018-06-10T17:54:04.821Z,99707.80
2018-06-10T17:54:45.223Z,99702.95
2018-06-10T17:55:25.601Z,99701.31
2018-06-10T17:56:06.083Z,99703.13
2018-06-10T17:56:47.270Z,99700.61
2018-06-10T17:57:27.639Z,99708.22
2018-06-10T17:58:07.999Z,99710.01
2018-06-10T17:58:48.871Z,99711.23
2018-06-10T17:59:29.361Z,99707.25
2018-06-10T18:00:09.723Z,99713.32
2018-06-10T18:00:50.206Z,99715.86
2018-06-10T18:01:30.499Z,99716.46
2018-06-10T18:02:11.302Z,99711.84
2018-06-10T18:02:51.653Z,99710.94
2018-06-10T18:03:31.630Z,99717.42
2018-06-10T18:04:12.028Z,99716.25
2018-06-10T18:04:52.923Z,99724.79
2018-06-10T18:05:33.286Z,99722.41
2018-06-10T18:06:13.606Z,99726.02
2018-06-10T18:06:53.966Z,99721.14
2018-06-10T18:07:34.423Z,99730.94
2018-06-10T18:08:14.979Z,99722.73
2018-06-10T18:08:55.302Z,99722.83
2018-06-10T18:09:35.622Z,99722.77
2018-06-10T18:10:15.987Z,99726.58
2018-06-10T18:10:56.410Z,99724.52
2018-06-10T18:11:36.597Z,99726.38
2018-06-10T18:12:17.021Z,99729.23
2018-06-10T18:12:57.329Z,99729.53
2018-06-10T18:13:37.674Z,99724.05
2018-06-10T18:14:17.942Z,99725.52
2018-06-10T18:14:58.364Z,99733.27
2018-06-10T18:17:08.237Z,99736.10
2018-06-10T18:17:48.546Z,99731.41
2018-06-10T18:18:28.957Z,99732.51
2018-06-10T18:19:10.214Z,99730.01
2018-06-10T18:19:50.618Z,99737.69
2018-06-10T18:20:30.908Z,99742.11
2018-06-10T18:21:11.476Z,99738.65
2018-06-10T18:21:52.549Z,99736.50
2018-06-10T18:22:33.995Z,99747.25
2018-06-10T18:23:18.188Z,99748.73
2018-06-10T18:23:59.480Z,99743.63
2018-06-10T18:24:43.692Z,99745.61
2018-06-10T18:25:24.056Z,99746.31
2018-06-10T18:26:04.499Z,99749.09
2018-06-10T18:26:48.598Z,99750.61
2018-06-10T18:27:29.149Z,99750.00
2018-06-10T18:28:11.933Z,99754.41
2018-06-10T18:28:55.963Z,99753.12
2018-06-10T18:29:44.322Z,99758.06
2018-06-10T18:30:34.460Z,99755.83
2018-06-10T18:31:16.558Z,99756.95
2018-06-10T18:32:06.543Z,99759.64
2018-06-10T18:32:51.157Z,99750.66
2018-06-10T18:33:31.961Z,99755.96
2018-06-10T18:34:12.406Z,99755.58
2018-06-10T18:34:53.487Z,99751.97
2018-06-10T18:35:33.886Z,99751.73
2018-06-10T18:36:15.323Z,99754.67
2018-06-10T18:36:56.426Z,99757.23
2018-06-10T18:37:39.347Z,99758.20
2018-06-10T18:38:19.746Z,99755.26
2018-06-10T18:39:03.758Z,99757.02
2018-06-10T18:39:44.767Z,99759.48
2018-06-10T18:40:26.532Z,99754.19
2018-06-10T18:41:08.340Z,99757.13
2018-06-10T18:41:49.643Z,99763.67
2018-06-10T18:42:31.106Z,99759.30
2018-06-10T18:43:15.255Z,99763.01
2018-06-10T18:43:56.587Z,99761.56
2018-06-10T18:44:36.975Z,99761.66
2018-06-10T18:45:18.706Z,99763.01
2018-06-10T18:45:58.857Z,99759.80
2018-06-10T18:46:39.196Z,99759.77
2018-06-10T18:47:19.751Z,99758.73
2018-06-10T18:48:00.032Z,99761.22
2018-06-10T18:48:40.573Z,99761.80
2018-06-10T18:49:21.866Z,99759.63
2018-06-10T18:50:02.255Z,99761.66
2018-06-10T18:50:42.745Z,99763.89
2018-06-10T18:51:23.176Z,99759.61
2018-06-10T18:53:54.751Z,99761.08
2018-06-10T18:56:21.663Z,99766.20
2018-06-10T18:58:48.439Z,99766.41
2018-06-10T19:01:15.082Z,99766.68
2018-06-10T19:03:46.088Z,99769.63
2018-06-10T19:06:12.882Z,99777.22
2018-06-10T19:08:39.594Z,99777.95
2018-06-10T19:11:06.268Z,99777.84
2018-06-10T19:13:36.654Z,99774.39
2018-06-10T19:16:03.556Z,99776.80
2018-06-10T19:18:30.535Z,99777.95
2018-06-10T19:20:57.302Z,99779.17
2018-06-10T19:23:24.219Z,99789.11
2018-06-10T19:25:51.001Z,99786.16
2018-06-10T19:28:17.665Z,99781.94
2018-06-10T19:30:44.405Z,99788.13
2018-06-10T19:33:14.985Z,99784.25
2018-06-10T19:35:41.752Z,99782.84
2018-06-10T19:38:08.426Z,99789.28
2018-06-10T19:40:36.023Z,99789.50
2018-06-10T19:43:02.834Z,99792.40
2018-06-10T19:45:29.442Z,99791.03
2018-06-10T19:47:56.234Z,99790.89
2018-06-10T19:50:23.074Z,99791.47
2018-06-10T19:52:50.762Z,99789.68
2018-06-10T19:55:17.697Z,99792.22
2018-06-10T19:57:44.426Z,99793.33
2018-06-10T20:00:11.042Z,99789.67
2018-06-10T20:02:37.983Z,99790.30
2018-06-10T20:05:04.700Z,99790.38
2018-06-10T20:07:31.482Z,99786.24
2018-06-10T20:09:58.304Z,99781.29
2018-06-10T20:12:25.061Z,99783.00
2018-06-10T20:14:52.134Z,99781.86
2018-06-10T20:17:19.561Z,99780.41
2018-06-10T20:19:46.186Z,99781.39
2018-06-10T20:22:12.943Z,99780.10
2018-06-10T20:24:39.888Z,99782.27
2018-06-10T20:27:06.678Z,99788.98
2018-06-10T20:29:33.519Z,99789.80
2018-06-10T20:32:00.233Z,99792.59
2018-06-10T20:34:27.101Z,99788.30
2018-06-10T20:36:53.624Z,99798.91
2018-06-10T20:39:20.238Z,99787.58
2018-06-10T20:41:47.069Z,99785.15
2018-06-10T20:44:13.907Z,99787.61
2018-06-10T20:46:41.663Z,99789.56
2018-06-10T20:49:08.401Z,99783.67
2018-06-10T20:51:35.406Z,99780.23
2018-06-10T20:54:03.095Z,99786.18
2018-06-10T20:56:29.817Z,99785.39
2018-06-10T20:58:56.594Z,99787.65
2018-06-10T21:01:23.352Z,99789.94
2018-06-10T21:03:50.208Z,99784.98
2018-06-10T21:06:16.995Z,99790.05
2018-06-10T21:08:43.858Z,99787.93
2018-06-10T21:11:10.389Z,99788.23
2018-06-10T21:13:38.365Z,99785.88
2018-06-10T21:16:05.166Z,99788.01
2018-06-10T21:18:31.944Z,99787.64
2018-06-10T21:20:58.643Z,99798.13
2018-06-10T21:23:31.677Z,99796.79
2018-06-10T21:25:58.347Z,99801.39
2018-06-10T21:28:24.992Z,99795.19
2018-06-10T21:30:51.602Z,99794.55
2018-06-10T21:33:19.345Z,99787.47
2018-06-10T21:35:46.035Z,99788.06
2018-06-10T21:38:12.622Z,99782.44
2018-06-10T21:40:39.342Z,99785.01
2018-06-10T21:43:09.541Z,99778.90
2018-06-10T21:45:36.293Z,99779.95
2018-06-10T21:48:02.980Z,99778.66
2018-06-10T21:50:29.646Z,99784.86
2018-06-10T21:53:00.011Z,99783.45
2018-06-10T21:55:26.586Z,99783.49
2018-06-10T21:57:53.271Z,99783.50
2018-06-10T22:00:19.884Z,99781.16
2018-06-10T22:02:46.645Z,99782.34
2018-06-10T22:05:13.413Z,99783.44
2018-06-10T22:07:40.162Z,99792.64
2018-06-10T22:10:06.850Z,99796.42
2018-06-10T22:12:37.089Z,99793.33
2018-06-10T22:15:03.661Z,99788.81
2018-06-10T22:17:30.213Z,99781.02
2018-06-10T22:19:56.938Z,99781.48
2018-06-10T22:22:23.721Z,99776.16
2018-06-10T22:24:50.446Z,99783.32
2018-06-10T22:27:17.086Z,99779.37
2018-06-10T22:29:43.743Z,99782.27
2018-06-10T22:32:10.586Z,99786.14
2018-06-10T22:34:37.249Z,99793.07
2018-06-10T22:37:03.968Z,99785.72
2018-06-10T22:39:30.587Z,99781.29
2018-06-10T22:41:57.305Z,99778.20
2018-06-10T22:44:25.157Z,99772.05
2018-06-10T22:46:51.878Z,99773.97
2018-06-10T22:49:18.656Z,99778.75
2018-06-10T22:51:45.352Z,99775.07
2018-06-10T22:54:20.061Z,99776.31
2018-06-10T22:56:46.780Z,99774.29
2018-06-10T22:59:13.362Z,99771.74
2018-06-10T23:01:40.207Z,99777.22
2018-06-10T23:04:11.517Z,99778.47
2018-06-10T23:06:38.285Z,99781.60
2018-06-10T23:09:05.068Z,99790.21
2018-06-10T23:11:31.780Z,99788.45
2018-06-10T23:14:02.471Z,99792.16
2018-06-10T23:16:29.193Z,99795.61
2018-06-10T23:18:55.878Z,99791.89
2018-06-10T23:21:22.625Z,99794.00
2018-06-10T23:23:49.605Z,99788.52
2018-06-10T23:26:16.498Z,99793.38
2018-06-10T23:28:43.202Z,99786.95
2018-06-10T23:31:09.941Z,99791.14
2018-06-10T23:33:37.699Z,99786.88
2018-06-10T23:36:04.388Z,99787.77
2018-06-10T23:38:31.002Z,99790.34
2018-06-10T23:40:57.982Z,99793.02
2018-06-10T23:43:24.677Z,99793.09
2018-06-10T23:45:51.385Z,99789.72
2018-06-10T23:48:18.126Z,99786.77
2018-06-10T23:50:44.880Z,99780.99
2018-06-10T23:53:12.508Z,99786.30
2018-06-10T23:55:39.366Z,99787.00
2018-06-10T23:58:06.173Z,99779.97
